Date,TemperatureHighF,TemperatureAvgF,TemperatureLowF,DewpointHighF,DewpointAvgF,DewpointLowF,HumidityHigh,HumidityAvg,HumidityLow,PressureMaxIn,PressureMinIn,WindSpeedMaxMPH,WindSpeedAvgMPH,GustSpeedMaxMPH,PrecipitationSumIn
2013-1-1,68,56,45,30,16,5,47,22,10,30.27,30.16,13,3,13,0.00
2013-1-2,76,60,48,15,6,0,24,12,10,30.21,30.03,20,5,20,0.00
2013-1-3,74,60,48,14,4,-3,21,11,10,30.21,30.06,21,6,21,0.00
2013-1-4,72,55,43,13,4,-7,24,13,10,30.30,30.19,9,3,9,0.00
2013-1-5,70,54,42,14,8,3,27,16,10,30.33,30.15,11,3,11,0.00
2013-1-6,68,55,44,38,21,2,60,28,10,30.16,29.95,24,5,24,0.00
2013-1-7,73,63,50,37,19,8,60,22,10,30.04,29.93,27,8,27,0.00
2013-1-8,88,72,57,27,20,3,25,14,10,30.08,29.95,22,5,22,0.00
2013-1-9,80,64,55,38,30,24,40,29,15,30.14,29.89,8,3,8,0.00
2013-1-10,70,58,50,41,29,12,51,34,21,30.00,29.80,47,13,47,1.37
2013-1-11,65,51,40,22,13,2,40,24,10,30.12,29.98,17,5,17,0.00
2013-1-12,66,50,40,30,16,2,55,29,10,30.15,30.00,21,4,21,0.00
2013-1-13,60,48,37,17,9,-6,39,23,10,30.18,30.02,16,4,16,0.00
2013-1-14,56,46,36,2,-6,-12,22,11,10,30.37,30.18,24,7,24,0.00
2013-1-15,67,49,38,16,5,-10,33,18,10,30.49,30.35,14,4,14,0.00
2013-1-16,76,54,37,28,18,6,50,25,10,30.41,30.22,12,3,12,0.00
2013-1-17,83,67,55,21,10,3,18,11,10,30.28,30.13,17,4,17,0.00
2013-1-18,84,66,54,22,12,4,18,12,10,30.21,30.08,9,4,9,0.00
2013-1-19,88,68,57,25,11,2,16,11,10,30.23,30.10,8,3,8,0.00
2013-1-20,91,68,53,27,10,-2,12,10,10,30.16,30.01,8,3,8,0.00
2013-1-21,92,72,60,28,12,3,10,10,10,30.12,30.00,15,4,15,0.00
2013-1-22,85,68,55,22,10,0,16,10,10,30.14,30.02,8,3,8,0.00
2013-1-23,79,68,60,30,13,4,26,12,10,30.12,30.01,8,2,8,0.00
2013-1-24,76,67,61,51,36,13,65,34,12,30.18,30.03,11,3,11,0.00
2013-1-25,66,62,59,59,56,49,96,81,62,30.17,29.96,5,2,5,0.26
2013-1-26,71,62,58,61,58,56,99,87,64,29.96,29.84,12,3,12,0.08
2013-1-27,72,61,53,58,48,29,98,67,25,29.95,29.83,42,8,42,0.43
2013-1-28,70,56,46,38,29,17,69,39,16,30.10,29.91,24,4,24,0.00
2013-1-29,54,48,43,33,30,26,58,50,41,30.22,30.08,8,3,8,0.00
2013-1-30,75,58,45,41,35,27,68,44,19,30.34,30.19,11,3,11,0.00
2013-1-31,84,63,50,43,38,34,61,41,18,30.24,30.08,11,3,11,0.00
2013-2-1,84,66,53,39,36,32,50,34,17,30.17,30.08,7,3,7,0.00
2013-2-2,81,69,59,47,36,27,49,31,15,30.22,30.08,10,3,10,0.00
2013-2-3,81,71,61,46,40,35,47,33,23,30.09,29.93,11,4,11,0.00
2013-2-4,90,71,59,43,34,18,53,29,10,30.02,29.87,10,3,10,0.00
2013-2-5,83,68,56,40,32,20,45,28,11,29.98,29.82,10,3,10,0.00
2013-2-6,88,67,53,46,35,15,63,36,10,30.01,29.83,14,3,14,0.00
2013-2-7,80,65,54,43,33,19,57,32,13,30.05,29.81,42,4,42,0.26
2013-2-8,64,54,44,40,34,27,69,47,28,29.92,29.80,43,10,43,0.17
2013-2-9,66,53,41,38,30,25,71,45,23,30.02,29.84,22,5,22,0.00
2013-2-10,69,54,43,35,30,21,60,41,19,30.03,29.91,12,3,12,0.00
2013-2-11,66,58,51,33,14,0,48,20,10,30.21,29.98,27,8,27,0.00
2013-2-12,75,58,44,24,10,-3,36,16,10,30.31,30.17,12,4,12,0.00
2013-2-13,81,61,46,28,20,12,33,22,10,30.23,30.06,12,4,12,0.00
2013-2-14,84,69,52,31,20,12,36,17,10,30.17,30.03,14,4,14,0.00
2013-2-15,86,72,61,22,15,6,21,12,10,30.24,30.14,17,5,17,0.00
2013-2-16,87,70,58,24,12,2,16,10,10,30.21,29.92,7,3,7,0.00
2013-2-17,88,69,55,35,18,2,40,16,10,29.93,29.78,12,3,12,0.00
2013-2-18,81,65,51,42,28,15,57,28,10,29.99,29.82,13,3,13,0.00
2013-2-19,69,58,48,42,35,28,68,45,27,29.83,29.63,42,8,42,0.44
2013-2-20,68,56,44,36,31,26,72,40,21,29.90,29.63,23,6,23,0.11
2013-2-21,70,56,43,38,27,8,70,38,13,30.04,29.89,18,4,18,0.00
2013-2-22,77,58,44,27,20,11,43,25,10,30.16,30.04,11,3,11,0.00
2013-2-23,78,62,48,35,25,13,37,26,12,30.12,29.75,22,4,22,0.00
2013-2-24,70,62,53,11,5,-2,14,10,10,30.17,29.96,29,10,29,0.00
2013-2-25,74,61,48,17,8,-3,25,13,10,30.21,29.99,13,4,13,0.00
2013-2-26,80,63,47,18,11,1,30,14,10,30.16,29.96,17,4,17,0.00
2013-2-27,79,65,51,18,8,-1,16,11,10,30.28,30.15,14,4,14,0.00
2013-2-28,86,72,58,23,12,2,10,10,10,30.33,30.21,14,4,14,0.00
2013-3-1,92,75,63,28,17,5,17,11,10,30.32,30.14,13,2,13,0.00
2013-3-2,88,74,60,29,20,14,23,14,10,30.22,30.00,14,3,14,0.00
2013-3-3,89,74,62,37,25,11,37,17,10,30.01,29.78,28,6,28,0.01
2013-3-4,88,71,56,45,38,23,59,34,10,30.00,29.85,15,3,15,0.00
2013-3-5,84,69,60,45,40,32,59,37,17,30.03,29.87,16,3,16,0.00
2013-3-6,81,67,53,45,36,25,64,36,13,30.00,29.82,51,5,51,1.57
2013-3-7,72,64,57,44,39,27,53,40,23,29.91,29.80,31,6,31,0.00
2013-3-8,66,58,51,42,33,24,68,41,21,29.93,29.78,31,9,31,0.06
2013-3-9,77,61,47,42,36,27,69,43,17,30.11,29.91,13,2,13,0.00
2013-3-10,85,72,54,41,18,7,61,15,10,30.24,30.06,19,5,22,0.00
2013-3-11,89,73,57,25,15,2,20,11,10,30.15,29.94,11,1,11,0.00
2013-3-12,97,77,61,31,22,9,22,13,10,30.06,29.92,11,1,11,0.00
2013-3-13,103,85,68,36,26,16,18,12,10,30.09,29.93,11,1,11,0.00
2013-3-14,104,86,71,36,27,19,19,12,10,30.04,29.88,14,2,14,0.00
2013-3-15,101,85,72,37,30,21,23,14,10,29.93,29.76,25,3,25,0.00
2013-3-16,101,87,69,44,32,18,36,16,10,29.79,29.65,14,3,14,0.00
2013-3-17,98,78,64,47,37,24,46,27,10,29.86,29.70,10,2,10,0.00
2013-3-18,92,74,62,50,42,25,54,35,10,29.93,29.79,11,1,11,0.00
2013-3-19,94,76,61,49,41,26,60,34,10,29.95,29.84,14,2,14,0.00
2013-3-20,92,77,66,47,40,23,44,29,10,29.95,29.77,30,2,30,0.00
2013-3-21,98,78,64,49,40,19,53,31,10,29.78,29.61,18,2,18,0.00
2013-3-22,91,76,62,49,34,13,55,28,10,29.75,29.61,24,5,24,0.00
2013-3-23,87,75,63,47,23,10,56,18,10,29.97,29.74,23,4,23,0.00
2013-3-24,88,73,59,24,17,8,20,12,10,29.98,29.81,12,2,12,0.00
2013-3-25,89,77,61,25,18,6,17,11,10,29.92,29.80,14,2,14,0.00
2013-3-26,93,78,66,40,30,18,37,19,10,29.84,29.71,22,3,24,0.00
2013-3-27,91,76,63,41,32,18,36,22,10,29.85,29.76,29,4,30,0.04
2013-3-28,91,79,62,48,34,22,47,22,10,29.97,29.88,14,2,14,0.00
2013-3-29,90,78,64,46,39,30,40,26,13,30.02,29.91,17,2,17,0.00
2013-3-30,96,82,71,50,40,27,45,26,10,29.97,29.84,26,3,26,0.00
2013-3-31,88,78,69,45,38,24,36,25,13,29.95,29.85,32,10,38,0.06
2013-4-1,84,72,59,44,38,29,53,32,15,30.00,29.85,18,2,22,0.00
2013-4-2,92,73,58,46,38,24,55,34,10,29.96,29.80,14,1,14,0.00
2013-4-3,98,81,63,45,35,22,46,24,10,29.98,29.85,13,1,13,0.00
2013-4-4,98,82,68,44,36,20,38,21,10,29.94,29.81,34,3,34,0.09
2013-4-5,92,82,69,51,38,20,52,24,10,29.92,29.78,14,0,15,0.00
2013-4-6,93,76,61,52,46,29,64,39,11,29.92,29.75,17,0,17,0.00
2013-4-7,93,77,62,53,45,30,64,37,11,29.82,29.60,11,0,11,0.00
2013-4-8,74,68,62,51,39,30,61,36,20,29.62,29.47,29,0,29,1.16